sensor_id;sensor_type;location;lat;lon;timestamp;P1;durP1;ratioP1;P2;durP2;ratioP2
12469;SDS011;36499;46.484;13.832;2023-09-19T00:00:25;6.93;;;5.37;;
12469;SDS011;36499;46.484;13.832;2023-09-19T00:02:53;9.87;;;5.57;;
12469;SDS011;36499;46.484;13.832;2023-09-19T00:05:22;6.43;;;5.17;;
12469;SDS011;36499;46.484;13.832;2023-09-19T00:07:52;7.20;;;4.87;;
12469;SDS011;36499;46.484;13.832;2023-09-19T00:10:23;8.87;;;4.97;;
12469;SDS011;36499;46.484;13.832;2023-09-19T00:12:51;7.47;;;5.00;;
12469;SDS011;36499;46.484;13.832;2023-09-19T00:15:22;7.90;;;4.90;;
12469;SDS011;36499;46.484;13.832;2023-09-19T00:17:51;6.13;;;4.90;;
12469;SDS011;36499;46.484;13.832;2023-09-19T00:20:18;9.83;;;5.00;;
12469;SDS011;36499;46.484;13.832;2023-09-19T00:22:48;6.20;;;4.20;;
12469;SDS011;36499;46.484;13.832;2023-09-19T00:25:17;6.17;;;4.37;;
12469;SDS011;36499;46.484;13.832;2023-09-19T00:27:46;6.50;;;4.37;;
12469;SDS011;36499;46.484;13.832;2023-09-19T00:30:16;7.37;;;4.30;;
12469;SDS011;36499;46.484;13.832;2023-09-19T00:32:47;8.00;;;4.13;;
12469;SDS011;36499;46.484;13.832;2023-09-19T00:35:19;7.60;;;4.20;;
12469;SDS011;36499;46.484;13.832;2023-09-19T00:37:48;6.40;;;4.77;;
12469;SDS011;36499;46.484;13.832;2023-09-19T00:40:16;5.87;;;4.33;;
12469;SDS011;36499;46.484;13.832;2023-09-19T00:42:43;4.87;;;4.07;;
12469;SDS011;36499;46.484;13.832;2023-09-19T00:45:12;8.33;;;4.40;;
12469;SDS011;36499;46.484;13.832;2023-09-19T00:47:43;5.43;;;4.03;;
12469;SDS011;36499;46.484;13.832;2023-09-19T00:50:14;6.27;;;4.20;;
12469;SDS011;36499;46.484;13.832;2023-09-19T00:52:44;9.87;;;4.10;;
12469;SDS011;36499;46.484;13.832;2023-09-19T00:55:15;6.33;;;4.10;;
12469;SDS011;36499;46.484;13.832;2023-09-19T00:57:44;5.57;;;3.83;;
12469;SDS011;36499;46.484;13.832;2023-09-19T01:00:14;6.83;;;3.40;;
12469;SDS011;36499;46.484;13.832;2023-09-19T01:02:46;3.37;;;1.10;;
12469;SDS011;36499;46.484;13.832;2023-09-19T01:05:14;1.27;;;1.00;;
12469;SDS011;36499;46.484;13.832;2023-09-19T01:07:42;0.80;;;0.80;;
12469;SDS011;36499;46.484;13.832;2023-09-19T01:10:11;1.93;;;1.30;;
12469;SDS011;36499;46.484;13.832;2023-09-19T01:12:45;2.23;;;1.37;;
12469;SDS011;36499;46.484;13.832;2023-09-19T01:15:34;1.40;;;1.13;;
12469;SDS011;36499;46.484;13.832;2023-09-19T01:18:20;1.83;;;1.50;;
12469;SDS011;36499;46.484;13.832;2023-09-19T01:21:08;2.77;;;1.10;;
12469;SDS011;36499;46.484;13.832;2023-09-19T01:23:55;2.33;;;1.10;;
12469;SDS011;36499;46.484;13.832;2023-09-19T01:27:06;1.20;;;1.10;;
12469;SDS011;36499;46.484;13.832;2023-09-19T01:30:10;1.00;;;0.90;;
12469;SDS011;36499;46.484;13.832;2023-09-19T01:32:43;1.00;;;0.90;;
12469;SDS011;36499;46.484;13.832;2023-09-19T01:35:11;1.33;;;0.80;;
12469;SDS011;36499;46.484;13.832;2023-09-19T01:37:38;1.30;;;1.00;;
12469;SDS011;36499;46.484;13.832;2023-09-19T01:40:08;1.70;;;0.90;;
12469;SDS011;36499;46.484;13.832;2023-09-19T01:42:43;1.50;;;1.00;;
12469;SDS011;36499;46.484;13.832;2023-09-19T01:45:24;1.67;;;0.90;;
12469;SDS011;36499;46.484;13.832;2023-09-19T01:48:02;2.47;;;0.70;;
12469;SDS011;36499;46.484;13.832;2023-09-19T01:50:48;0.80;;;0.70;;
12469;SDS011;36499;46.484;13.832;2023-09-19T01:53:26;1.17;;;0.97;;
12469;SDS011;36499;46.484;13.832;2023-09-19T01:55:59;0.70;;;0.70;;
12469;SDS011;36499;46.484;13.832;2023-09-19T01:58:33;1.03;;;0.80;;
12469;SDS011;36499;46.484;13.832;2023-09-19T02:01:09;1.87;;;0.90;;
12469;SDS011;36499;46.484;13.832;2023-09-19T02:03:45;1.80;;;0.80;;
12469;SDS011;36499;46.484;13.832;2023-09-19T02:06:14;2.10;;;1.00;;
12469;SDS011;36499;46.484;13.832;2023-09-19T02:08:42;1.00;;;0.80;;
12469;SDS011;36499;46.484;13.832;2023-09-19T02:11:10;0.87;;;0.80;;
12469;SDS011;36499;46.484;13.832;2023-09-19T02:13:38;1.17;;;0.90;;
12469;SDS011;36499;46.484;13.832;2023-09-19T02:16:05;3.00;;;0.80;;
12469;SDS011;36499;46.484;13.832;2023-09-19T02:18:35;1.20;;;0.90;;
12469;SDS011;36499;46.484;13.832;2023-09-19T02:21:02;0.80;;;0.80;;
12469;SDS011;36499;46.484;13.832;2023-09-19T02:23:31;1.63;;;1.00;;
12469;SDS011;36499;46.484;13.832;2023-09-19T02:25:58;1.60;;;1.03;;
12469;SDS011;36499;46.484;13.832;2023-09-19T02:28:26;1.33;;;0.80;;
12469;SDS011;36499;46.484;13.832;2023-09-19T02:30:55;0.80;;;0.80;;
12469;SDS011;36499;46.484;13.832;2023-09-19T02:33:22;0.97;;;0.70;;
12469;SDS011;36499;46.484;13.832;2023-09-19T02:35:53;4.00;;;1.03;;
12469;SDS011;36499;46.484;13.832;2023-09-19T02:38:22;1.87;;;0.70;;
12469;SDS011;36499;46.484;13.832;2023-09-19T02:40:51;1.83;;;0.90;;
12469;SDS011;36499;46.484;13.832;2023-09-19T02:43:20;1.53;;;1.00;;
12469;SDS011;36499;46.484;13.832;2023-09-19T02:45:48;1.00;;;0.90;;
12469;SDS011;36499;46.484;13.832;2023-09-19T02:48:17;1.53;;;0.90;;
12469;SDS011;36499;46.484;13.832;2023-09-19T02:50:44;2.30;;;1.00;;
12469;SDS011;36499;46.484;13.832;2023-09-19T02:53:13;2.37;;;1.00;;
12469;SDS011;36499;46.484;13.832;2023-09-19T02:55:40;1.10;;;1.00;;
12469;SDS011;36499;46.484;13.832;2023-09-19T02:58:08;0.83;;;0.70;;
12469;SDS011;36499;46.484;13.832;2023-09-19T03:00:36;3.07;;;0.77;;
12469;SDS011;36499;46.484;13.832;2023-09-19T03:03:04;0.80;;;0.80;;
12469;SDS011;36499;46.484;13.832;2023-09-19T03:05:33;2.53;;;0.90;;
12469;SDS011;36499;46.484;13.832;2023-09-19T03:08:03;1.10;;;0.80;;
12469;SDS011;36499;46.484;13.832;2023-09-19T03:10:32;2.23;;;0.80;;
12469;SDS011;36499;46.484;13.832;2023-09-19T03:13:02;3.47;;;0.90;;
12469;SDS011;36499;46.484;13.832;2023-09-19T03:15:30;2.13;;;1.13;;
12469;SDS011;36499;46.484;13.832;2023-09-19T03:17:57;2.30;;;0.83;;
12469;SDS011;36499;46.484;13.832;2023-09-19T03:20:24;1.10;;;0.90;;
12469;SDS011;36499;46.484;13.832;2023-09-19T03:22:52;2.20;;;1.10;;
12469;SDS011;36499;46.484;13.832;2023-09-19T03:25:19;1.20;;;0.97;;
12469;SDS011;36499;46.484;13.832;2023-09-19T03:27:49;1.03;;;0.90;;
12469;SDS011;36499;46.484;13.832;2023-09-19T03:30:16;2.37;;;0.90;;
12469;SDS011;36499;46.484;13.832;2023-09-19T03:32:44;1.17;;;0.90;;
12469;SDS011;36499;46.484;13.832;2023-09-19T03:35:14;3.73;;;0.90;;
12469;SDS011;36499;46.484;13.832;2023-09-19T03:37:42;1.63;;;0.83;;
12469;SDS011;36499;46.484;13.832;2023-09-19T03:40:10;2.03;;;0.90;;
12469;SDS011;36499;46.484;13.832;2023-09-19T03:42:38;0.63;;;0.63;;
12469;SDS011;36499;46.484;13.832;2023-09-19T03:45:07;0.90;;;0.63;;
12469;SDS011;36499;46.484;13.832;2023-09-19T03:47:37;1.20;;;1.00;;
12469;SDS011;36499;46.484;13.832;2023-09-19T03:50:05;0.87;;;0.83;;
12469;SDS011;36499;46.484;13.832;2023-09-19T03:52:35;1.60;;;0.93;;
12469;SDS011;36499;46.484;13.832;2023-09-19T03:55:03;2.83;;;0.80;;
12469;SDS011;36499;46.484;13.832;2023-09-19T03:57:31;1.27;;;1.00;;
12469;SDS011;36499;46.484;13.832;2023-09-19T04:00:00;2.20;;;0.83;;
12469;SDS011;36499;46.484;13.832;2023-09-19T04:02:28;2.73;;;1.00;;
12469;SDS011;36499;46.484;13.832;2023-09-19T04:04:58;2.70;;;1.00;;
12469;SDS011;36499;46.484;13.832;2023-09-19T04:07:25;1.40;;;0.90;;
12469;SDS011;36499;46.484;13.832;2023-09-19T04:09:54;0.80;;;0.70;;
12469;SDS011;36499;46.484;13.832;2023-09-19T04:12:21;1.70;;;0.87;;
12469;SDS011;36499;46.484;13.832;2023-09-19T04:14:48;1.83;;;0.90;;
12469;SDS011;36499;46.484;13.832;2023-09-19T04:17:15;1.50;;;0.83;;
12469;SDS011;36499;46.484;13.832;2023-09-19T04:19:45;2.27;;;0.90;;
12469;SDS011;36499;46.484;13.832;2023-09-19T04:22:12;0.90;;;0.80;;
12469;SDS011;36499;46.484;13.832;2023-09-19T04:24:39;2.93;;;0.90;;
12469;SDS011;36499;46.484;13.832;2023-09-19T04:27:06;0.90;;;0.90;;
12469;SDS011;36499;46.484;13.832;2023-09-19T04:29:34;1.63;;;1.00;;
12469;SDS011;36499;46.484;13.832;2023-09-19T04:32:03;1.93;;;1.00;;
12469;SDS011;36499;46.484;13.832;2023-09-19T04:34:31;3.20;;;0.93;;
12469;SDS011;36499;46.484;13.832;2023-09-19T04:37:00;2.83;;;0.90;;
12469;SDS011;36499;46.484;13.832;2023-09-19T04:39:28;8.57;;;1.20;;
12469;SDS011;36499;46.484;13.832;2023-09-19T04:41:55;2.93;;;1.10;;
12469;SDS011;36499;46.484;13.832;2023-09-19T04:44:23;3.13;;;0.97;;
12469;SDS011;36499;46.484;13.832;2023-09-19T04:46:50;0.77;;;0.77;;
12469;SDS011;36499;46.484;13.832;2023-09-19T04:49:17;1.80;;;1.20;;
12469;SDS011;36499;46.484;13.832;2023-09-19T04:51:44;2.07;;;1.00;;
12469;SDS011;36499;46.484;13.832;2023-09-19T04:54:13;2.97;;;0.90;;
12469;SDS011;36499;46.484;13.832;2023-09-19T04:56:40;1.13;;;0.80;;
12469;SDS011;36499;46.484;13.832;2023-09-19T04:59:08;2.13;;;0.90;;
12469;SDS011;36499;46.484;13.832;2023-09-19T05:01:36;1.87;;;0.93;;
12469;SDS011;36499;46.484;13.832;2023-09-19T05:04:03;3.27;;;1.10;;
12469;SDS011;36499;46.484;13.832;2023-09-19T05:06:30;1.20;;;0.90;;
12469;SDS011;36499;46.484;13.832;2023-09-19T05:09:00;1.40;;;1.03;;
12469;SDS011;36499;46.484;13.832;2023-09-19T05:11:31;1.30;;;1.20;;
12469;SDS011;36499;46.484;13.832;2023-09-19T05:13:59;3.13;;;1.00;;
12469;SDS011;36499;46.484;13.832;2023-09-19T05:16:28;2.33;;;1.00;;
12469;SDS011;36499;46.484;13.832;2023-09-19T05:18:56;1.47;;;1.23;;
12469;SDS011;36499;46.484;13.832;2023-09-19T05:21:25;3.63;;;1.10;;
12469;SDS011;36499;46.484;13.832;2023-09-19T05:23:53;2.70;;;1.10;;
12469;SDS011;36499;46.484;13.832;2023-09-19T05:26:21;1.00;;;0.90;;
12469;SDS011;36499;46.484;13.832;2023-09-19T05:28:50;1.10;;;1.00;;
12469;SDS011;36499;46.484;13.832;2023-09-19T05:31:17;2.03;;;0.93;;
12469;SDS011;36499;46.484;13.832;2023-09-19T05:33:45;2.17;;;1.00;;
12469;SDS011;36499;46.484;13.832;2023-09-19T05:36:12;1.40;;;0.93;;
12469;SDS011;36499;46.484;13.832;2023-09-19T05:38:41;1.30;;;1.00;;
12469;SDS011;36499;46.484;13.832;2023-09-19T05:41:09;1.53;;;1.10;;
12469;SDS011;36499;46.484;13.832;2023-09-19T05:43:38;0.90;;;0.90;;
12469;SDS011;36499;46.484;13.832;2023-09-19T05:46:07;1.57;;;1.00;;
12469;SDS011;36499;46.484;13.832;2023-09-19T05:48:34;0.80;;;0.80;;
12469;SDS011;36499;46.484;13.832;2023-09-19T05:51:01;1.97;;;0.90;;
12469;SDS011;36499;46.484;13.832;2023-09-19T05:53:28;1.70;;;1.00;;
12469;SDS011;36499;46.484;13.832;2023-09-19T05:55:55;2.87;;;1.13;;
12469;SDS011;36499;46.484;13.832;2023-09-19T05:58:26;3.67;;;1.17;;
12469;SDS011;36499;46.484;13.832;2023-09-19T06:00:53;2.13;;;1.57;;
12469;SDS011;36499;46.484;13.832;2023-09-19T06:03:21;3.73;;;1.40;;
12469;SDS011;36499;46.484;13.832;2023-09-19T06:05:48;3.20;;;1.20;;
12469;SDS011;36499;46.484;13.832;2023-09-19T06:08:18;1.10;;;1.00;;
12469;SDS011;36499;46.484;13.832;2023-09-19T06:10:45;3.73;;;1.07;;
12469;SDS011;36499;46.484;13.832;2023-09-19T06:13:13;1.40;;;1.00;;
12469;SDS011;36499;46.484;13.832;2023-09-19T06:15:40;2.20;;;0.77;;
12469;SDS011;36499;46.484;13.832;2023-09-19T06:18:10;1.13;;;1.03;;
12469;SDS011;36499;46.484;13.832;2023-09-19T06:20:41;1.77;;;0.87;;
12469;SDS011;36499;46.484;13.832;2023-09-19T06:23:09;1.87;;;1.00;;
12469;SDS011;36499;46.484;13.832;2023-09-19T06:25:36;1.50;;;1.20;;
12469;SDS011;36499;46.484;13.832;2023-09-19T06:28:04;0.83;;;0.83;;
12469;SDS011;36499;46.484;13.832;2023-09-19T06:30:33;2.03;;;0.97;;
12469;SDS011;36499;46.484;13.832;2023-09-19T06:33:00;2.63;;;1.27;;
12469;SDS011;36499;46.484;13.832;2023-09-19T06:35:29;1.10;;;1.00;;
12469;SDS011;36499;46.484;13.832;2023-09-19T06:38:03;0.97;;;0.90;;
12469;SDS011;36499;46.484;13.832;2023-09-19T06:40:30;4.60;;;1.00;;
12469;SDS011;36499;46.484;13.832;2023-09-19T06:42:59;2.23;;;1.00;;
12469;SDS011;36499;46.484;13.832;2023-09-19T06:45:29;3.70;;;1.03;;
12469;SDS011;36499;46.484;13.832;2023-09-19T06:47:57;2.27;;;0.87;;
12469;SDS011;36499;46.484;13.832;2023-09-19T06:50:25;1.97;;;0.90;;
12469;SDS011;36499;46.484;13.832;2023-09-19T06:52:53;2.53;;;1.20;;
12469;SDS011;36499;46.484;13.832;2023-09-19T06:55:23;2.50;;;1.20;;
12469;SDS011;36499;46.484;13.832;2023-09-19T06:57:53;1.43;;;1.00;;
12469;SDS011;36499;46.484;13.832;2023-09-19T07:00:20;2.27;;;1.10;;
12469;SDS011;36499;46.484;13.832;2023-09-19T07:02:54;1.50;;;1.30;;
12469;SDS011;36499;46.484;13.832;2023-09-19T07:05:24;1.40;;;1.03;;
12469;SDS011;36499;46.484;13.832;2023-09-19T07:07:52;2.37;;;1.37;;
12469;SDS011;36499;46.484;13.832;2023-09-19T07:10:20;2.87;;;1.33;;
12469;SDS011;36499;46.484;13.832;2023-09-19T07:12:54;1.63;;;0.90;;
12469;SDS011;36499;46.484;13.832;2023-09-19T07:15:23;2.63;;;1.20;;
12469;SDS011;36499;46.484;13.832;2023-09-19T07:17:50;2.50;;;1.00;;
12469;SDS011;36499;46.484;13.832;2023-09-19T07:20:18;3.53;;;0.90;;
12469;SDS011;36499;46.484;13.832;2023-09-19T07:22:45;1.70;;;1.00;;
12469;SDS011;36499;46.484;13.832;2023-09-19T07:25:13;2.03;;;0.97;;
12469;SDS011;36499;46.484;13.832;2023-09-19T07:27:41;2.60;;;0.87;;
12469;SDS011;36499;46.484;13.832;2023-09-19T07:30:12;2.47;;;1.20;;
12469;SDS011;36499;46.484;13.832;2023-09-19T07:32:40;3.20;;;1.40;;
12469;SDS011;36499;46.484;13.832;2023-09-19T07:35:07;1.23;;;1.10;;
12469;SDS011;36499;46.484;13.832;2023-09-19T07:37:34;1.30;;;1.20;;
12469;SDS011;36499;46.484;13.832;2023-09-19T07:40:02;2.70;;;1.10;;
12469;SDS011;36499;46.484;13.832;2023-09-19T07:42:32;1.03;;;0.90;;
12469;SDS011;36499;46.484;13.832;2023-09-19T07:45:00;4.27;;;1.30;;
12469;SDS011;36499;46.484;13.832;2023-09-19T07:47:29;1.63;;;1.40;;
12469;SDS011;36499;46.484;13.832;2023-09-19T07:49:57;2.30;;;1.30;;
12469;SDS011;36499;46.484;13.832;2023-09-19T07:52:26;1.20;;;0.90;;
12469;SDS011;36499;46.484;13.832;2023-09-19T07:54:54;3.03;;;1.10;;
12469;SDS011;36499;46.484;13.832;2023-09-19T07:57:22;1.83;;;1.20;;
12469;SDS011;36499;46.484;13.832;2023-09-19T07:59:49;1.20;;;1.10;;
12469;SDS011;36499;46.484;13.832;2023-09-19T08:02:16;1.23;;;1.00;;
12469;SDS011;36499;46.484;13.832;2023-09-19T08:04:45;1.13;;;1.00;;
12469;SDS011;36499;46.484;13.832;2023-09-19T08:07:12;3.27;;;1.10;;
12469;SDS011;36499;46.484;13.832;2023-09-19T08:09:39;1.80;;;0.83;;
12469;SDS011;36499;46.484;13.832;2023-09-19T08:12:07;1.50;;;1.10;;
12469;SDS011;36499;46.484;13.832;2023-09-19T08:14:35;0.83;;;0.83;;
12469;SDS011;36499;46.484;13.832;2023-09-19T08:17:02;1.87;;;0.90;;
12469;SDS011;36499;46.484;13.832;2023-09-19T08:19:30;1.13;;;0.93;;
12469;SDS011;36499;46.484;13.832;2023-09-19T08:21:59;0.97;;;0.87;;
12469;SDS011;36499;46.484;13.832;2023-09-19T08:24:28;1.53;;;1.10;;
12469;SDS011;36499;46.484;13.832;2023-09-19T08:26:56;1.47;;;0.90;;
12469;SDS011;36499;46.484;13.832;2023-09-19T08:29:24;1.27;;;1.00;;
12469;SDS011;36499;46.484;13.832;2023-09-19T08:31:52;1.00;;;0.90;;
12469;SDS011;36499;46.484;13.832;2023-09-19T08:34:21;1.43;;;0.90;;
12469;SDS011;36499;46.484;13.832;2023-09-19T08:36:50;1.40;;;0.80;;
12469;SDS011;36499;46.484;13.832;2023-09-19T08:39:19;1.00;;;0.93;;
12469;SDS011;36499;46.484;13.832;2023-09-19T08:41:46;1.33;;;0.90;;
12469;SDS011;36499;46.484;13.832;2023-09-19T08:44:13;1.30;;;1.20;;
12469;SDS011;36499;46.484;13.832;2023-09-19T08:46:40;1.47;;;1.37;;
12469;SDS011;36499;46.484;13.832;2023-09-19T08:49:12;1.20;;;1.10;;
12469;SDS011;36499;46.484;13.832;2023-09-19T08:51:53;1.80;;;1.00;;
12469;SDS011;36499;46.484;13.832;2023-09-19T08:54:32;1.23;;;1.10;;
12469;SDS011;36499;46.484;13.832;2023-09-19T08:57:07;0.87;;;0.87;;
12469;SDS011;36499;46.484;13.832;2023-09-19T08:59:36;2.00;;;1.03;;
12469;SDS011;36499;46.484;13.832;2023-09-19T09:02:08;0.80;;;0.80;;
12469;SDS011;36499;46.484;13.832;2023-09-19T09:04:38;1.50;;;1.00;;
12469;SDS011;36499;46.484;13.832;2023-09-19T09:07:09;2.40;;;1.23;;
12469;SDS011;36499;46.484;13.832;2023-09-19T09:09:39;8.40;;;4.13;;
12469;SDS011;36499;46.484;13.832;2023-09-19T09:12:08;2.90;;;1.20;;
12469;SDS011;36499;46.484;13.832;2023-09-19T09:14:38;0.80;;;0.80;;
12469;SDS011;36499;46.484;13.832;2023-09-19T09:17:06;2.23;;;1.00;;
12469;SDS011;36499;46.484;13.832;2023-09-19T09:19:34;4.00;;;1.00;;
12469;SDS011;36499;46.484;13.832;2023-09-19T09:22:06;1.67;;;1.30;;
12469;SDS011;36499;46.484;13.832;2023-09-19T09:24:34;1.53;;;1.00;;
12469;SDS011;36499;46.484;13.832;2023-09-19T09:27:05;5.00;;;1.30;;
12469;SDS011;36499;46.484;13.832;2023-09-19T09:29:42;2.50;;;1.20;;
12469;SDS011;36499;46.484;13.832;2023-09-19T09:32:17;4.83;;;1.20;;
12469;SDS011;36499;46.484;13.832;2023-09-19T09:34:47;1.93;;;1.20;;
12469;SDS011;36499;46.484;13.832;2023-09-19T09:37:17;3.83;;;1.10;;
12469;SDS011;36499;46.484;13.832;2023-09-19T09:39:49;2.37;;;0.90;;
12469;SDS011;36499;46.484;13.832;2023-09-19T09:48:02;3.23;;;1.20;;
12469;SDS011;36499;46.484;13.832;2023-09-19T09:50:39;4.63;;;1.07;;
12469;SDS011;36499;46.484;13.832;2023-09-19T09:53:21;1.87;;;1.20;;
12469;SDS011;36499;46.484;13.832;2023-09-19T09:55:59;1.93;;;1.10;;
12469;SDS011;36499;46.484;13.832;2023-09-19T09:58:32;3.57;;;0.93;;
12469;SDS011;36499;46.484;13.832;2023-09-19T10:01:00;0.90;;;0.90;;
12469;SDS011;36499;46.484;13.832;2023-09-19T10:03:34;1.70;;;1.10;;
12469;SDS011;36499;46.484;13.832;2023-09-19T10:06:06;2.37;;;1.17;;
12469;SDS011;36499;46.484;13.832;2023-09-19T10:09:00;3.87;;;1.20;;
12469;SDS011;36499;46.484;13.832;2023-09-19T10:11:30;1.27;;;1.07;;
12469;SDS011;36499;46.484;13.832;2023-09-19T10:13:59;1.70;;;1.07;;
12469;SDS011;36499;46.484;13.832;2023-09-19T10:16:31;2.13;;;1.20;;
12469;SDS011;36499;46.484;13.832;2023-09-19T10:19:01;2.30;;;1.30;;
12469;SDS011;36499;46.484;13.832;2023-09-19T10:21:34;1.47;;;1.20;;
12469;SDS011;36499;46.484;13.832;2023-09-19T10:24:03;2.70;;;1.00;;
12469;SDS011;36499;46.484;13.832;2023-09-19T10:26:34;1.60;;;1.30;;
12469;SDS011;36499;46.484;13.832;2023-09-19T10:29:06;1.87;;;1.30;;
12469;SDS011;36499;46.484;13.832;2023-09-19T10:31:35;1.30;;;1.17;;
12469;SDS011;36499;46.484;13.832;2023-09-19T10:34:12;5.00;;;1.30;;
12469;SDS011;36499;46.484;13.832;2023-09-19T10:36:43;3.90;;;1.40;;
12469;SDS011;36499;46.484;13.832;2023-09-19T10:39:13;5.73;;;1.20;;
12469;SDS011;36499;46.484;13.832;2023-09-19T10:41:47;3.53;;;1.30;;
12469;SDS011;36499;46.484;13.832;2023-09-19T10:44:23;1.33;;;1.10;;
12469;SDS011;36499;46.484;13.832;2023-09-19T10:46:51;3.23;;;1.20;;
12469;SDS011;36499;46.484;13.832;2023-09-19T10:49:19;1.77;;;1.10;;
12469;SDS011;36499;46.484;13.832;2023-09-19T10:51:47;1.43;;;1.13;;
12469;SDS011;36499;46.484;13.832;2023-09-19T10:54:21;3.63;;;1.20;;
12469;SDS011;36499;46.484;13.832;2023-09-19T10:56:53;4.53;;;1.20;;
12469;SDS011;36499;46.484;13.832;2023-09-19T10:59:25;1.20;;;1.10;;
12469;SDS011;36499;46.484;13.832;2023-09-19T11:01:59;2.93;;;1.20;;
12469;SDS011;36499;46.484;13.832;2023-09-19T11:04:43;1.30;;;1.10;;
12469;SDS011;36499;46.484;13.832;2023-09-19T11:07:13;1.77;;;1.00;;
12469;SDS011;36499;46.484;13.832;2023-09-19T11:09:48;1.67;;;1.13;;
12469;SDS011;36499;46.484;13.832;2023-09-19T11:18:55;2.30;;;1.50;;
12469;SDS011;36499;46.484;13.832;2023-09-19T11:21:38;2.50;;;1.40;;
12469;SDS011;36499;46.484;13.832;2023-09-19T11:24:27;3.07;;;1.50;;
12469;SDS011;36499;46.484;13.832;2023-09-19T11:27:09;1.30;;;1.20;;
12469;SDS011;36499;46.484;13.832;2023-09-19T11:29:42;2.47;;;1.40;;
12469;SDS011;36499;46.484;13.832;2023-09-19T11:32:11;1.77;;;1.10;;
12469;SDS011;36499;46.484;13.832;2023-09-19T11:34:46;2.47;;;1.20;;
12469;SDS011;36499;46.484;13.832;2023-09-19T11:40:40;1.63;;;1.10;;
12469;SDS011;36499;46.484;13.832;2023-09-19T11:46:06;4.60;;;1.20;;
12469;SDS011;36499;46.484;13.832;2023-09-19T11:48:34;2.80;;;1.20;;
12469;SDS011;36499;46.484;13.832;2023-09-19T11:51:10;4.67;;;1.50;;
12469;SDS011;36499;46.484;13.832;2023-09-19T11:53:45;1.40;;;1.13;;
12469;SDS011;36499;46.484;13.832;2023-09-19T11:56:15;1.53;;;1.10;;
12469;SDS011;36499;46.484;13.832;2023-09-19T11:58:45;1.80;;;1.23;;
12469;SDS011;36499;46.484;13.832;2023-09-19T12:01:15;1.63;;;1.23;;
12469;SDS011;36499;46.484;13.832;2023-09-19T12:03:53;3.53;;;1.17;;
12469;SDS011;36499;46.484;13.832;2023-09-19T12:06:23;2.63;;;1.40;;
12469;SDS011;36499;46.484;13.832;2023-09-19T12:08:52;1.73;;;1.20;;
12469;SDS011;36499;46.484;13.832;2023-09-19T12:11:21;2.10;;;1.40;;
12469;SDS011;36499;46.484;13.832;2023-09-19T12:13:49;3.27;;;1.40;;
12469;SDS011;36499;46.484;13.832;2023-09-19T12:16:18;1.77;;;1.33;;
12469;SDS011;36499;46.484;13.832;2023-09-19T12:18:48;1.67;;;1.33;;
12469;SDS011;36499;46.484;13.832;2023-09-19T12:21:24;1.50;;;1.20;;
12469;SDS011;36499;46.484;13.832;2023-09-19T12:26:45;2.90;;;1.43;;
12469;SDS011;36499;46.484;13.832;2023-09-19T12:29:17;3.97;;;1.60;;
12469;SDS011;36499;46.484;13.832;2023-09-19T12:31:52;3.17;;;1.40;;
12469;SDS011;36499;46.484;13.832;2023-09-19T12:34:23;2.37;;;1.50;;
12469;SDS011;36499;46.484;13.832;2023-09-19T12:39:38;1.87;;;1.20;;
12469;SDS011;36499;46.484;13.832;2023-09-19T12:42:13;1.83;;;1.40;;
12469;SDS011;36499;46.484;13.832;2023-09-19T12:44:43;3.50;;;1.30;;
12469;SDS011;36499;46.484;13.832;2023-09-19T12:47:13;2.17;;;1.23;;
12469;SDS011;36499;46.484;13.832;2023-09-19T12:52:41;1.40;;;1.30;;
12469;SDS011;36499;46.484;13.832;2023-09-19T12:55:22;2.60;;;1.47;;
12469;SDS011;36499;46.484;13.832;2023-09-19T12:58:11;1.57;;;1.30;;
12469;SDS011;36499;46.484;13.832;2023-09-19T13:00:40;2.63;;;1.57;;
12469;SDS011;36499;46.484;13.832;2023-09-19T13:03:13;2.57;;;1.70;;
12469;SDS011;36499;46.484;13.832;2023-09-19T13:05:48;3.33;;;1.30;;
12469;SDS011;36499;46.484;13.832;2023-09-19T13:08:25;2.30;;;1.60;;
12469;SDS011;36499;46.484;13.832;2023-09-19T13:11:00;3.17;;;1.50;;
12469;SDS011;36499;46.484;13.832;2023-09-19T13:13:32;4.23;;;1.60;;
12469;SDS011;36499;46.484;13.832;2023-09-19T13:16:01;1.77;;;1.37;;
12469;SDS011;36499;46.484;13.832;2023-09-19T13:18:33;2.73;;;1.87;;
12469;SDS011;36499;46.484;13.832;2023-09-19T13:21:10;5.20;;;1.53;;
12469;SDS011;36499;46.484;13.832;2023-09-19T13:23:49;1.83;;;1.33;;
12469;SDS011;36499;46.484;13.832;2023-09-19T13:26:17;2.00;;;1.63;;
12469;SDS011;36499;46.484;13.832;2023-09-19T13:28:45;2.47;;;1.70;;
12469;SDS011;36499;46.484;13.832;2023-09-19T13:31:14;4.50;;;1.90;;
12469;SDS011;36499;46.484;13.832;2023-09-19T13:33:43;1.93;;;1.60;;
12469;SDS011;36499;46.484;13.832;2023-09-19T13:36:11;2.80;;;1.90;;
12469;SDS011;36499;46.484;13.832;2023-09-19T13:38:39;2.73;;;1.80;;
12469;SDS011;36499;46.484;13.832;2023-09-19T13:41:09;1.80;;;1.50;;
12469;SDS011;36499;46.484;13.832;2023-09-19T13:43:37;2.00;;;1.63;;
12469;SDS011;36499;46.484;13.832;2023-09-19T13:46:05;3.63;;;1.70;;
12469;SDS011;36499;46.484;13.832;2023-09-19T13:48:37;4.10;;;1.80;;
12469;SDS011;36499;46.484;13.832;2023-09-19T13:51:04;3.37;;;2.10;;
12469;SDS011;36499;46.484;13.832;2023-09-19T13:53:31;2.93;;;1.83;;
12469;SDS011;36499;46.484;13.832;2023-09-19T13:55:59;4.20;;;1.90;;
12469;SDS011;36499;46.484;13.832;2023-09-19T13:58:27;2.27;;;1.83;;
12469;SDS011;36499;46.484;13.832;2023-09-19T14:00:56;5.43;;;1.80;;
12469;SDS011;36499;46.484;13.832;2023-09-19T14:03:25;2.87;;;2.10;;
12469;SDS011;36499;46.484;13.832;2023-09-19T14:05:53;2.97;;;1.83;;
12469;SDS011;36499;46.484;13.832;2023-09-19T14:08:20;3.57;;;1.80;;
12469;SDS011;36499;46.484;13.832;2023-09-19T14:10:48;3.37;;;2.10;;
12469;SDS011;36499;46.484;13.832;2023-09-19T14:13:15;2.43;;;1.87;;
12469;SDS011;36499;46.484;13.832;2023-09-19T14:15:44;2.53;;;1.90;;
12469;SDS011;36499;46.484;13.832;2023-09-19T14:18:11;2.73;;;1.90;;
12469;SDS011;36499;46.484;13.832;2023-09-19T14:20:38;3.93;;;2.10;;
12469;SDS011;36499;46.484;13.832;2023-09-19T14:23:06;2.67;;;1.70;;
12469;SDS011;36499;46.484;13.832;2023-09-19T14:25:34;3.13;;;2.00;;
12469;SDS011;36499;46.484;13.832;2023-09-19T14:28:01;2.23;;;1.80;;
12469;SDS011;36499;46.484;13.832;2023-09-19T14:30:29;3.23;;;1.60;;
12469;SDS011;36499;46.484;13.832;2023-09-19T14:32:57;5.63;;;1.90;;
12469;SDS011;36499;46.484;13.832;2023-09-19T14:35:24;3.90;;;2.20;;
12469;SDS011;36499;46.484;13.832;2023-09-19T14:37:52;5.53;;;1.83;;
12469;SDS011;36499;46.484;13.832;2023-09-19T14:40:20;2.67;;;2.13;;
12469;SDS011;36499;46.484;13.832;2023-09-19T14:42:47;4.07;;;1.80;;
12469;SDS011;36499;46.484;13.832;2023-09-19T14:45:14;5.20;;;2.13;;
12469;SDS011;36499;46.484;13.832;2023-09-19T14:47:43;4.70;;;2.03;;
12469;SDS011;36499;46.484;13.832;2023-09-19T14:50:13;2.63;;;1.87;;
12469;SDS011;36499;46.484;13.832;2023-09-19T14:52:40;2.40;;;1.77;;
12469;SDS011;36499;46.484;13.832;2023-09-19T14:55:08;2.33;;;1.77;;
12469;SDS011;36499;46.484;13.832;2023-09-19T14:57:40;4.67;;;2.00;;
12469;SDS011;36499;46.484;13.832;2023-09-19T15:00:10;5.07;;;2.30;;
12469;SDS011;36499;46.484;13.832;2023-09-19T15:02:38;2.70;;;1.90;;
12469;SDS011;36499;46.484;13.832;2023-09-19T15:05:06;3.60;;;1.87;;
12469;SDS011;36499;46.484;13.832;2023-09-19T15:07:36;2.47;;;1.73;;
12469;SDS011;36499;46.484;13.832;2023-09-19T15:10:04;1.90;;;1.70;;
12469;SDS011;36499;46.484;13.832;2023-09-19T15:12:34;2.47;;;1.80;;
12469;SDS011;36499;46.484;13.832;2023-09-19T15:15:03;3.20;;;2.07;;
12469;SDS011;36499;46.484;13.832;2023-09-19T15:17:33;3.03;;;1.70;;